KOSH/OSH METAR and TAF weather

Enter ICAO airport designator
Station Type Date Time Source
KOSH METAR 2020/08/12 17:53 UTC NOAA

KOSH 121753Z 14006KT 10SM CLR 28/15 A3011 RMK AO2 SLP182 T02830150 10289 20161 50004


Station Type Date Time Source
KOSH Decoded METAR 2020/08/12 17:53 UTC NOAA

WITTMAN REGIONAL AIRPORT, WI, United States (KOSH) 43-58N 88-33W 248M
Aug 12, 2020 - 01:53 PM EDT / 2020.08.12 1753 UTC
Wind: from the SE (140 degrees) at 7 MPH (6 KT):0
Visibility: 10 mile(s):0
Sky conditions: clear
Temperature: 82.9 F (28.3 C)
Dew Point: 59.0 F (15.0 C)
Relative Humidity: 44%
Pressure (altimeter): 30.11 in. Hg (1019 hPa)
Pressure tendency: 0.01 inches (0.4 hPa) higher than three hours ago
ob: KOSH 121753Z 14006KT 10SM CLR 28/15 A3011 RMK AO2 SLP182 T02830150 10289 20161 50004
cycle: 18

Station Type Date Time Source
KOSH TAF 2020/07/18 21:24 UTC NOAA

TAF
AMD KOSH 182120Z 1821/1918 21009G18KT P6SM SCT110
FM190200 21009KT P6SM VCTS SCT100CB
FM190900 23011KT P6SM TSRA OVC030CB
FM191000 23011G19KT P6SM VCTS OVC040CB
FM191100 24011KT P6SM OVC021
FM191300 27011KT P6SM BKN045

Example: see airport list